Time;durP1;ratioP1;P1;durP2;ratioP2;P2;SDS_P1;SDS_P2;PMS_P1;PMS_P2;Temp;Humidity;BMP_temperature;BMP_pressure;BME280_temperature;BME280_humidity;BME280_pressure;Samples;Min_cycle;Max_cycle;Signal;HPM_P1;HPM_P2
2022/01/23 00:02:05;;;;;;;18.57;12.40;;;4.10;99.90;;;;;;5027663;28;20446;-52
2022/01/23 00:04:31;;;;;;;13.00;10.57;;;4.10;99.90;;;;;;5034155;28;20446;-54
2022/01/23 00:07:02;;;;;;;13.33;11.30;;;4.20;99.90;;;;;;5033869;28;20544;-52
2022/01/23 00:09:30;;;;;;;15.60;11.03;;;4.20;99.90;;;;;;5033989;28;20891;-53
2022/01/23 00:11:58;;;;;;;13.30;10.03;;;4.20;99.90;;;;;;5027917;28;21195;-55
2022/01/23 00:17:18;;;;;;;14.93;10.47;;;4.20;99.90;;;;;;5030668;28;20537;-52
2022/01/23 00:19:45;;;;;;;12.50;9.90;;;4.10;99.90;;;;;;5032748;28;20919;-53
2022/01/23 00:22:12;;;;;;;11.70;9.93;;;4.20;99.90;;;;;;5029357;28;20494;-53
2022/01/23 00:32:55;;;;;;;9.70;7.90;;;4.40;99.90;;;;;;5032667;28;20534;-52
2022/01/23 00:35:21;;;;;;;9.20;7.70;;;4.40;99.90;;;;;;5029415;28;20458;-52
2022/01/23 00:37:48;;;;;;;8.23;7.40;;;4.50;99.90;;;;;;5026305;28;20661;-52
2022/01/23 00:40:17;;;;;;;8.97;8.07;;;4.50;99.90;;;;;;5028570;28;21035;-53
2022/01/23 00:42:43;;;;;;;7.90;7.10;;;4.50;99.90;;;;;;5027759;28;20549;-52
2022/01/23 00:45:28;;;;;;;7.80;6.30;;;4.40;99.90;;;;;;5027931;28;20494;-53
2022/01/23 00:48:00;;;;;;;7.33;6.73;;;4.50;99.90;;;;;;5017684;28;21180;-53
2022/01/23 00:50:28;;;;;;;6.50;5.90;;;4.50;99.90;;;;;;5016880;28;20454;-53
2022/01/23 00:52:55;;;;;;;7.30;6.60;;;4.60;99.90;;;;;;5012733;28;20486;-54
2022/01/23 00:55:23;;;;;;;7.20;6.50;;;4.60;99.90;;;;;;5012695;28;20566;-52
2022/01/23 00:57:49;;;;;;;5.90;5.40;;;4.60;99.90;;;;;;5016633;28;21099;-52
2022/01/23 01:00:17;;;;;;;6.20;5.80;;;4.60;99.90;;;;;;5028363;28;20494;-52
2022/01/23 01:02:43;;;;;;;6.27;5.77;;;4.60;99.90;;;;;;5030717;28;20486;-53
2022/01/23 01:05:11;;;;;;;5.30;4.80;;;4.60;99.90;;;;;;5031280;28;20976;-52
2022/01/23 01:07:38;;;;;;;5.47;5.07;;;4.60;99.90;;;;;;5025497;28;20995;-54
2022/01/23 01:10:10;;;;;;;5.77;5.37;;;4.60;99.90;;;;;;5023240;28;20567;-53
2022/01/23 01:12:41;;;;;;;7.37;4.63;;;4.70;99.90;;;;;;5031577;28;20490;-53
2022/01/23 01:15:29;;;;;;;6.43;5.27;;;4.70;99.90;;;;;;5029301;28;20932;-54
2022/01/23 01:31:41;;;;;;;4.53;4.20;;;4.70;93.70;;;;;;5027386;28;20477;-53
2022/01/23 01:34:11;;;;;;;4.80;4.60;;;4.80;91.20;;;;;;5025523;28;20477;-53
2022/01/23 01:36:46;;;;;;;4.27;3.97;;;4.70;92.00;;;;;;5027632;28;20857;-53
2022/01/23 01:39:14;;;;;;;3.70;3.50;;;4.70;85.90;;;;;;5027029;28;20979;-52
2022/01/23 01:41:42;;;;;;;3.80;3.60;;;4.80;82.80;;;;;;5030777;28;20497;-54
2022/01/23 01:44:10;;;;;;;3.40;3.23;;;4.80;76.90;;;;;;5040985;23;20601;-57
2022/01/23 01:46:37;;;;;;;3.60;3.40;;;4.80;80.50;;;;;;5028969;28;20493;-57
2022/01/23 01:49:04;;;;;;;3.03;2.83;;;4.80;74.60;;;;;;5028972;28;20505;-59
2022/01/23 01:51:32;;;;;;;3.13;3.03;;;4.80;78.30;;;;;;5028084;28;20514;-57
2022/01/23 01:54:05;;;;;;;4.27;3.97;;;4.80;77.90;;;;;;5028491;28;20536;-57
2022/01/23 01:56:39;;;;;;;3.50;3.20;;;4.80;80.40;;;;;;5031008;28;20457;-57
2022/01/23 01:59:21;;;;;;;3.77;3.57;;;4.80;75.10;;;;;;5029580;28;20542;-57
2022/01/23 02:10:04;;;;;;;3.40;3.20;;;4.80;73.40;;;;;;5023681;28;20458;-57
2022/01/23 02:12:59;;;;;;;3.63;3.43;;;4.80;80.50;;;;;;5034214;28;20902;-57
2022/01/23 02:16:00;;;;;;;3.30;3.20;;;4.90;70.50;;;;;;5029693;28;20465;-58
2022/01/23 02:22:28;;;;;;;3.20;3.10;;;4.90;69.60;;;;;;5026177;28;20463;-57
2022/01/23 02:51:58;;;;;;;4.00;3.80;;;5.00;74.60;;;;;;5032120;28;20493;-56
2022/01/23 02:54:42;;;;;;;4.17;3.87;;;4.90;77.80;;;;;;5027757;28;20540;-57
2022/01/23 02:57:10;;;;;;;4.50;4.10;;;4.90;83.20;;;;;;5029103;28;20462;-56
2022/01/23 02:59:37;;;;;;;4.50;4.20;;;4.90;86.20;;;;;;5031665;28;20493;-56
2022/01/23 03:02:12;;;;;;;4.33;4.03;;;4.90;93.10;;;;;;5028121;28;20462;-56
2022/01/23 03:04:47;;;;;;;4.20;4.00;;;4.90;93.50;;;;;;5031720;28;20531;-58
2022/01/23 03:07:31;;;;;;;4.83;4.43;;;4.90;84.30;;;;;;5027379;28;20486;-56
2022/01/23 03:10:03;;;;;;;5.07;4.57;;;4.90;86.30;;;;;;5029919;28;20516;-57
2022/01/23 03:15:32;;;;;;;4.77;4.47;;;4.90;87.60;;;;;;5030915;28;20451;-58
2022/01/23 03:26:25;;;;;;;4.13;3.93;;;4.90;93.50;;;;;;5011747;28;20454;-56
2022/01/23 03:31:43;;;;;;;4.87;4.57;;;4.90;93.30;;;;;;5014178;28;20553;-57
2022/01/23 03:34:11;;;;;;;5.10;4.70;;;4.80;99.90;;;;;;5028827;28;20490;-57
2022/01/23 03:36:38;;;;;;;4.70;4.37;;;4.90;96.80;;;;;;5028078;28;20467;-57
2022/01/23 03:39:07;;;;;;;4.00;3.80;;;5.00;95.90;;;;;;5026946;28;20467;-57
2022/01/23 03:41:36;;;;;;;4.97;4.57;;;4.90;99.90;;;;;;5027485;28;20475;-58
2022/01/23 03:44:04;;;;;;;4.43;4.00;;;4.90;99.90;;;;;;5024522;28;22493;-56
2022/01/23 03:46:49;;;;;;;3.90;3.70;;;4.90;99.90;;;;;;5025480;28;20463;-57
2022/01/23 03:49:32;;;;;;;4.30;4.10;;;4.90;99.90;;;;;;5022848;28;20466;-56
2022/01/23 03:52:01;;;;;;;4.00;3.77;;;4.80;99.90;;;;;;5038689;28;20991;-56
2022/01/23 03:54:27;;;;;;;3.80;3.60;;;4.90;96.00;;;;;;5029551;28;20577;-57
2022/01/23 03:56:57;;;;;;;3.40;3.30;;;4.90;98.00;;;;;;5029374;28;20462;-56
2022/01/23 03:59:25;;;;;;;3.20;3.00;;;4.90;95.20;;;;;;5029703;28;20466;-57
2022/01/23 04:01:52;;;;;;;3.40;3.20;;;4.90;95.10;;;;;;5035371;28;20542;-57
2022/01/23 04:04:36;;;;;;;4.30;4.10;;;4.90;90.60;;;;;;5027965;28;20565;-57
2022/01/23 04:07:04;;;;;;;3.57;3.37;;;4.90;90.20;;;;;;5022931;28;21023;-57
2022/01/23 04:09:31;;;;;;;3.40;3.20;;;4.90;87.70;;;;;;5035826;28;20481;-57
2022/01/23 04:12:00;;;;;;;4.07;3.87;;;4.90;93.10;;;;;;5029848;28;20505;-56
2022/01/23 04:14:28;;;;;;;3.47;3.27;;;4.90;91.60;;;;;;5028815;28;20573;-57
2022/01/23 04:17:21;;;;;;;4.07;3.87;;;4.90;93.50;;;;;;5027786;28;20831;-57
2022/01/23 04:20:08;;;;;;;3.90;3.67;;;5.00;85.60;;;;;;5022123;28;20464;-57
2022/01/23 04:33:46;;;;;;;4.60;4.30;;;5.00;88.60;;;;;;5031723;28;20624;-57
2022/01/23 04:48:28;;;;;;;5.07;4.67;;;5.00;93.30;;;;;;5033826;28;20477;-56
2022/01/23 05:01:31;;;;;;;5.10;4.80;;;5.00;99.90;;;;;;5032661;28;20511;-56
2022/01/23 05:06:40;;;;;;;5.40;5.10;;;5.00;94.30;;;;;;5031679;28;20438;-57
2022/01/23 05:09:07;;;;;;;5.33;4.93;;;4.90;99.90;;;;;;5031467;28;20466;-57
2022/01/23 05:11:35;;;;;;;5.07;4.77;;;5.00;94.40;;;;;;5031497;28;20828;-55
2022/01/23 05:14:02;;;;;;;5.30;4.90;;;5.00;99.90;;;;;;5031460;28;20541;-57
2022/01/23 05:16:31;;;;;;;4.67;4.30;;;5.00;95.70;;;;;;5030971;28;20540;-58
2022/01/23 05:18:58;;;;;;;5.47;5.00;;;5.00;94.80;;;;;;5032857;28;20467;-56
2022/01/23 05:21:51;;;;;;;5.60;4.60;;;5.00;99.90;;;;;;5038838;28;20485;-57
2022/01/23 05:24:22;;;;;;;4.70;4.40;;;5.00;97.80;;;;;;5031188;28;20478;-57
2022/01/23 05:26:49;;;;;;;4.10;3.80;;;5.00;96.30;;;;;;5032472;28;20618;-57
2022/01/23 05:29:16;;;;;;;4.80;4.40;;;5.00;99.90;;;;;;5032304;28;20454;-58
2022/01/23 05:31:45;;;;;;;4.90;4.43;;;5.00;99.20;;;;;;5029935;28;20458;-56
2022/01/23 05:34:12;;;;;;;5.10;4.80;;;5.00;99.90;;;;;;5026409;28;20514;-57
2022/01/23 05:36:38;;;;;;;4.93;4.53;;;5.00;98.00;;;;;;5031813;28;20462;-56
2022/01/23 05:39:05;;;;;;;5.83;5.43;;;5.00;95.00;;;;;;5029534;28;20501;-56
2022/01/23 05:41:33;;;;;;;4.70;4.50;;;5.00;93.20;;;;;;5029702;28;20464;-56
2022/01/23 05:44:00;;;;;;;5.47;5.10;;;5.00;92.00;;;;;;5030395;28;20487;-56
2022/01/23 05:46:27;;;;;;;5.00;4.60;;;5.00;88.50;;;;;;5030902;28;20545;-56
2022/01/23 05:48:54;;;;;;;5.77;5.37;;;5.00;88.20;;;;;;5035574;28;20553;-57
2022/01/23 05:51:21;;;;;;;5.70;5.30;;;5.00;89.80;;;;;;5030189;28;20562;-57
2022/01/23 05:53:48;;;;;;;6.30;5.90;;;5.00;86.20;;;;;;5030861;28;21211;-56
2022/01/23 05:56:16;;;;;;;7.27;6.10;;;5.00;87.20;;;;;;5028972;28;20473;-57
2022/01/23 05:58:43;;;;;;;5.53;5.17;;;5.00;97.30;;;;;;5029380;28;21203;-56
2022/01/23 06:01:09;;;;;;;7.03;6.50;;;5.00;97.60;;;;;;5031486;28;20566;-56
2022/01/23 06:03:36;;;;;;;11.90;6.83;;;5.00;89.20;;;;;;5032281;28;20564;-57
2022/01/23 06:06:04;;;;;;;5.90;5.30;;;5.00;89.30;;;;;;5034966;28;20583;-56
2022/01/23 06:08:31;;;;;;;6.07;5.67;;;5.00;93.20;;;;;;5023036;28;20541;-57
2022/01/23 06:10:58;;;;;;;6.20;5.70;;;5.00;93.40;;;;;;5031958;28;20509;-56
2022/01/23 06:13:26;;;;;;;6.70;6.20;;;5.00;87.40;;;;;;5027664;28;21063;-56
2022/01/23 06:15:53;;;;;;;6.43;5.93;;;5.00;88.60;;;;;;5030990;28;20548;-57
2022/01/23 06:18:20;;;;;;;7.03;6.30;;;5.00;88.70;;;;;;5028699;28;20593;-56
2022/01/23 06:20:47;;;;;;;6.40;5.80;;;5.00;90.70;;;;;;5032786;28;20478;-56
2022/01/23 06:23:14;;;;;;;6.47;5.97;;;5.00;88.80;;;;;;5021939;28;21003;-57
2022/01/23 06:25:42;;;;;;;6.73;6.33;;;5.00;88.00;;;;;;5032746;28;20482;-56
2022/01/23 06:28:10;;;;;;;6.40;5.90;;;5.00;82.10;;;;;;5029371;28;20894;-56
2022/01/23 06:30:37;;;;;;;8.07;7.20;;;5.00;84.90;;;;;;5022179;28;20543;-56
2022/01/23 06:33:04;;;;;;;6.77;6.13;;;5.10;82.90;;;;;;5030406;28;20849;-56
2022/01/23 06:35:31;;;;;;;6.97;6.00;;;5.00;83.70;;;;;;5029670;28;21000;-57
2022/01/23 06:37:58;;;;;;;6.77;6.20;;;5.10;86.80;;;;;;5029166;28;20542;-56
2022/01/23 06:40:26;;;;;;;10.47;6.90;;;5.10;83.90;;;;;;5029566;28;20494;-56
2022/01/23 06:42:52;;;;;;;7.53;6.80;;;5.10;87.40;;;;;;5022859;28;21023;-56
2022/01/23 06:45:19;;;;;;;7.63;6.97;;;5.10;88.10;;;;;;5031068;28;20546;-58
2022/01/23 06:47:45;;;;;;;6.97;6.47;;;5.10;88.90;;;;;;5030130;28;20539;-56
2022/01/23 06:50:12;;;;;;;6.93;6.40;;;5.10;86.20;;;;;;5028601;28;20546;-57
2022/01/23 06:52:38;;;;;;;8.97;6.50;;;5.00;89.30;;;;;;5033531;28;20573;-56
2022/01/23 06:55:05;;;;;;;8.07;7.27;;;5.10;81.80;;;;;;5031281;28;20509;-57
2022/01/23 06:57:33;;;;;;;7.00;6.50;;;5.10;85.60;;;;;;5029739;28;20531;-58
2022/01/23 07:00:00;;;;;;;8.00;7.30;;;5.10;85.50;;;;;;5031337;28;20458;-58
2022/01/23 07:02:26;;;;;;;7.60;6.90;;;5.10;80.90;;;;;;5029085;28;20557;-57
2022/01/23 07:04:53;;;;;;;10.43;7.47;;;5.10;83.80;;;;;;5030206;28;20997;-57
2022/01/23 07:07:19;;;;;;;10.03;6.70;;;5.10;83.30;;;;;;5028615;28;20486;-57
2022/01/23 07:09:46;;;;;;;7.57;6.87;;;5.10;84.70;;;;;;5028407;28;21035;-57
2022/01/23 07:12:12;;;;;;;8.60;7.80;;;5.10;84.60;;;;;;5025672;28;20504;-56
2022/01/23 07:14:40;;;;;;;7.43;6.90;;;5.20;84.60;;;;;;5029112;28;20573;-57
2022/01/23 07:17:07;;;;;;;8.33;7.37;;;5.20;85.80;;;;;;5028672;28;20463;-57
2022/01/23 07:19:34;;;;;;;7.50;6.77;;;5.20;91.10;;;;;;5028856;28;20899;-57
2022/01/23 07:22:00;;;;;;;8.00;7.40;;;5.10;99.90;;;;;;5030401;28;20529;-56
2022/01/23 07:24:27;;;;;;;7.60;7.00;;;5.10;92.70;;;;;;5035855;28;20546;-57
2022/01/23 07:26:54;;;;;;;7.73;7.03;;;5.10;94.60;;;;;;5029885;28;20524;-56
2022/01/23 07:29:21;;;;;;;7.40;6.90;;;5.20;86.50;;;;;;5027713;28;20459;-57
2022/01/23 07:32:00;;;;;;;8.13;7.50;;;5.20;89.90;;;;;;5030276;28;20490;-56
2022/01/23 07:34:28;;;;;;;7.80;7.10;;;5.10;91.60;;;;;;5028403;28;20482;-56
2022/01/23 07:36:54;;;;;;;7.23;6.73;;;5.10;98.20;;;;;;5029029;28;20477;-56
2022/01/23 07:39:21;;;;;;;6.67;6.17;;;5.10;97.30;;;;;;5028249;28;20470;-56
2022/01/23 07:41:47;;;;;;;7.37;5.70;;;5.10;90.90;;;;;;5030299;28;20551;-57
2022/01/23 07:44:14;;;;;;;6.70;6.07;;;5.10;86.40;;;;;;5030595;28;20566;-55
2022/01/23 07:46:41;;;;;;;6.50;6.00;;;5.20;90.00;;;;;;5028627;28;20524;-56
2022/01/23 07:49:09;;;;;;;6.33;5.70;;;5.20;90.30;;;;;;5028562;28;20466;-55
2022/01/23 07:51:35;;;;;;;6.20;5.80;;;5.20;87.50;;;;;;5026732;28;20562;-55
2022/01/23 07:54:02;;;;;;;6.10;5.70;;;5.20;91.00;;;;;;5028250;28;20621;-56
2022/01/23 07:56:28;;;;;;;7.63;6.47;;;5.30;97.70;;;;;;5026872;28;21247;-57
2022/01/23 07:58:55;;;;;;;6.70;6.20;;;5.20;96.80;;;;;;5032923;28;20562;-55
2022/01/23 08:01:22;;;;;;;5.70;5.30;;;5.30;93.80;;;;;;5031920;28;20490;-55
2022/01/23 08:03:48;;;;;;;7.37;6.77;;;5.40;86.50;;;;;;5028305;28;20525;-55
2022/01/23 08:06:16;;;;;;;6.40;5.87;;;5.50;87.30;;;;;;5027261;28;20486;-55
2022/01/23 08:08:43;;;;;;;6.60;6.10;;;5.50;86.30;;;;;;5025603;28;20494;-55
2022/01/23 08:11:09;;;;;;;5.80;5.40;;;5.50;99.90;;;;;;5029372;28;20561;-55
2022/01/23 08:13:36;;;;;;;6.63;5.53;;;5.50;99.70;;;;;;5030528;28;21273;-56
2022/01/23 08:16:03;;;;;;;6.60;6.00;;;5.50;99.90;;;;;;5033943;28;20462;-56
2022/01/23 08:18:30;;;;;;;5.87;5.47;;;5.50;99.90;;;;;;5030708;28;20459;-55
2022/01/23 08:20:57;;;;;;;6.80;6.20;;;5.60;99.90;;;;;;5034841;28;20536;-55
2022/01/23 08:23:24;;;;;;;5.33;5.03;;;5.60;99.90;;;;;;5031539;28;20513;-55
2022/01/23 08:25:51;;;;;;;6.00;5.50;;;5.70;99.90;;;;;;5037401;28;20970;-56
2022/01/23 08:28:18;;;;;;;6.00;5.50;;;5.70;99.90;;;;;;5034929;28;20904;-55
2022/01/23 08:30:44;;;;;;;5.67;5.33;;;5.70;99.90;;;;;;5031142;28;20545;-54
2022/01/23 08:33:11;;;;;;;5.47;5.07;;;5.60;99.90;;;;;;5033472;28;20517;-55
2022/01/23 08:35:38;;;;;;;5.47;5.07;;;5.60;99.90;;;;;;5031992;28;20558;-55
2022/01/23 08:38:06;;;;;;;5.60;5.20;;;5.60;99.90;;;;;;5032499;28;20470;-55
2022/01/23 08:40:58;;;;;;;5.63;5.23;;;5.60;99.90;;;;;;5032385;28;20458;-55
2022/01/23 08:43:25;;;;;;;5.00;4.60;;;5.60;99.90;;;;;;5027048;28;20490;-55
2022/01/23 08:45:52;;;;;;;6.70;4.80;;;5.60;99.90;;;;;;5031500;28;20459;-55
2022/01/23 08:48:19;;;;;;;5.70;5.20;;;5.60;99.90;;;;;;5029201;28;20525;-54
2022/01/23 08:50:45;;;;;;;5.53;5.00;;;5.60;99.90;;;;;;5033052;28;20536;-54
2022/01/23 08:53:12;;;;;;;4.73;4.43;;;5.60;99.90;;;;;;5030192;28;20585;-55
2022/01/23 08:55:40;;;;;;;4.90;4.47;;;5.60;99.90;;;;;;5031660;28;20504;-55
2022/01/23 08:58:07;;;;;;;6.10;5.70;;;5.60;99.90;;;;;;5031845;28;20979;-55
2022/01/23 09:00:33;;;;;;;5.47;5.17;;;5.60;99.90;;;;;;5032319;28;20905;-54
2022/01/23 09:03:00;;;;;;;5.67;5.17;;;5.70;99.90;;;;;;5024698;28;20537;-55
2022/01/23 09:05:27;;;;;;;6.63;6.10;;;5.60;99.90;;;;;;5036747;28;20459;-55
2022/01/23 09:07:54;;;;;;;5.53;5.13;;;5.60;99.90;;;;;;5029416;28;20546;-55
2022/01/23 09:10:26;;;;;;;5.27;4.97;;;5.60;99.90;;;;;;5031784;28;20630;-55
2022/01/23 09:13:10;;;;;;;5.70;5.30;;;5.60;99.90;;;;;;5032583;28;20972;-55
2022/01/23 09:15:37;;;;;;;5.70;5.30;;;5.60;99.90;;;;;;5029279;28;20486;-56
2022/01/23 09:18:04;;;;;;;6.23;5.63;;;5.70;99.90;;;;;;5028583;28;20609;-55
2022/01/23 09:20:31;;;;;;;6.27;5.63;;;5.70;99.90;;;;;;5027773;28;20557;-55
2022/01/23 09:22:57;;;;;;;6.03;5.57;;;5.80;99.90;;;;;;5020077;28;20606;-55
2022/01/23 09:25:24;;;;;;;5.50;5.20;;;5.80;99.90;;;;;;5030056;28;20625;-55
2022/01/23 09:27:51;;;;;;;6.10;5.60;;;5.80;99.90;;;;;;5028826;28;20978;-55
2022/01/23 09:30:20;;;;;;;6.00;5.30;;;5.80;99.90;;;;;;5031542;28;20548;-55
2022/01/23 09:32:47;;;;;;;5.70;5.30;;;5.80;99.90;;;;;;5022081;28;20574;-56
2022/01/23 09:35:15;;;;;;;6.37;5.90;;;5.80;99.90;;;;;;5030837;28;20573;-55
2022/01/23 09:37:42;;;;;;;6.03;5.57;;;5.80;99.90;;;;;;5034146;28;20451;-54
2022/01/23 09:40:11;;;;;;;6.63;6.07;;;5.80;99.90;;;;;;5031908;28;20463;-54
2022/01/23 09:42:43;;;;;;;5.90;5.50;;;5.80;99.90;;;;;;5026220;28;21051;-57
2022/01/23 09:45:13;;;;;;;6.27;5.73;;;5.90;99.90;;;;;;5025646;28;20460;-55
2022/01/23 09:47:42;;;;;;;6.13;5.63;;;5.90;99.90;;;;;;5026856;28;20482;-55
2022/01/23 09:50:11;;;;;;;6.03;5.53;;;5.90;99.90;;;;;;5029494;28;20562;-55
2022/01/23 09:52:38;;;;;;;6.07;5.57;;;5.90;99.90;;;;;;5032747;28;21497;-55
2022/01/23 09:55:11;;;;;;;8.43;5.90;;;5.90;99.90;;;;;;5028535;28;20578;-56
2022/01/23 09:57:40;;;;;;;5.27;4.87;;;5.90;99.90;;;;;;5029818;28;20467;-54
2022/01/23 10:00:09;;;;;;;6.93;6.43;;;6.00;99.90;;;;;;5037167;28;20833;-55
2022/01/23 10:02:36;;;;;;;6.33;5.83;;;5.90;99.90;;;;;;5029015;28;20542;-55
2022/01/23 10:05:05;;;;;;;6.30;5.80;;;6.00;99.90;;;;;;5027937;28;20550;-56
2022/01/23 10:07:33;;;;;;;11.77;6.97;;;6.00;99.90;;;;;;5036401;28;20536;-55
2022/01/23 10:10:10;;;;;;;6.80;6.10;;;6.00;99.90;;;;;;5038186;28;20553;-55
2022/01/23 10:12:39;;;;;;;6.80;6.20;;;6.00;99.90;;;;;;5034314;28;20461;-55
2022/01/23 10:15:06;;;;;;;6.33;5.83;;;6.00;99.90;;;;;;5026337;28;20570;-56
2022/01/23 10:17:33;;;;;;;5.70;5.40;;;6.10;99.90;;;;;;5031300;28;20489;-55
2022/01/23 10:20:01;;;;;;;7.83;5.30;;;6.10;99.90;;;;;;5026137;28;20995;-56
2022/01/23 10:22:30;;;;;;;6.50;6.00;;;6.20;99.90;;;;;;5033460;28;20494;-55
2022/01/23 10:25:05;;;;;;;7.10;6.40;;;6.20;99.90;;;;;;5022436;28;20466;-56
2022/01/23 10:27:55;;;;;;;6.53;5.93;;;6.30;99.90;;;;;;5023807;28;20542;-55
2022/01/23 10:30:24;;;;;;;6.87;6.27;;;6.30;99.90;;;;;;5020762;28;20466;-56
2022/01/23 10:33:08;;;;;;;7.87;5.33;;;6.20;99.90;;;;;;5022642;28;20490;-56
2022/01/23 10:35:35;;;;;;;6.17;5.57;;;6.30;99.90;;;;;;5018296;28;20459;-55
2022/01/23 10:38:12;;;;;;;6.40;5.10;;;6.30;99.90;;;;;;5021660;28;20549;-55
2022/01/23 10:40:48;;;;;;;5.30;4.90;;;6.40;99.90;;;;;;5021447;28;20502;-57
2022/01/23 10:48:45;;;;;;;4.17;3.80;;;6.70;99.90;;;;;;5026712;28;20993;-54
2022/01/23 10:51:26;;;;;;;4.83;4.53;;;6.70;99.90;;;;;;5022405;28;21233;-55
2022/01/23 10:53:59;;;;;;;4.20;4.00;;;6.80;99.90;;;;;;5021385;28;21062;-55
2022/01/23 10:56:26;;;;;;;4.63;4.37;;;6.60;99.90;;;;;;5022796;28;20455;-55
2022/01/23 10:59:01;;;;;;;4.90;4.60;;;6.60;99.90;;;;;;5019565;28;20455;-55
2022/01/23 11:01:28;;;;;;;5.10;4.80;;;6.60;99.90;;;;;;5023965;28;20548;-55
2022/01/23 11:04:19;;;;;;;5.50;5.13;;;6.50;99.90;;;;;;5022567;28;20478;-55
2022/01/23 11:06:54;;;;;;;5.10;4.80;;;6.60;99.90;;;;;;4995871;28;20553;-55
2022/01/23 11:09:29;;;;;;;4.17;3.97;;;6.60;99.90;;;;;;5022052;28;20553;-55
2022/01/23 11:12:02;;;;;;;4.37;4.00;;;6.60;99.90;;;;;;5023034;28;20943;-53
2022/01/23 11:17:24;;;;;;;3.83;3.63;;;6.70;99.90;;;;;;5028166;28;20442;-55
2022/01/23 11:19:55;;;;;;;4.47;3.50;;;6.80;99.90;;;;;;5021934;28;20470;-54
2022/01/23 11:22:24;;;;;;;3.93;3.70;;;6.80;99.90;;;;;;5024574;28;20545;-56
2022/01/23 11:24:57;;;;;;;3.70;3.50;;;6.80;99.90;;;;;;5025972;28;20491;-55
2022/01/23 11:27:23;;;;;;;3.33;3.23;;;6.80;99.90;;;;;;5020856;28;21015;-56
2022/01/23 11:30:04;;;;;;;3.80;3.60;;;6.80;99.90;;;;;;5026887;28;20547;-55
2022/01/23 11:32:36;;;;;;;3.87;3.63;;;6.80;99.90;;;;;;5029900;28;20458;-55
2022/01/23 11:35:08;;;;;;;4.07;3.77;;;6.70;99.90;;;;;;5027403;28;20474;-55
2022/01/23 11:37:35;;;;;;;4.00;3.70;;;6.80;99.90;;;;;;5029612;28;20554;-55
2022/01/23 11:40:10;;;;;;;3.23;3.07;;;6.90;99.90;;;;;;5030411;28;20462;-55
2022/01/23 11:53:42;;;;;;;4.37;4.07;;;7.00;99.90;;;;;;5029484;28;20478;-56
2022/01/23 11:53:57;;;;;;;3.17;2.97;;;7.00;99.90;;;;;;5031693;28;20497;-56
2022/01/23 11:56:40;;;;;;;3.67;3.47;;;7.00;99.90;;;;;;5033065;28;20482;-55
2022/01/23 11:59:39;;;;;;;3.33;3.13;;;6.80;99.90;;;;;;5030738;28;20504;-54
2022/01/23 12:02:36;;;;;;;3.77;3.07;;;6.80;99.90;;;;;;5017839;28;22448;-56
2022/01/23 12:05:24;;;;;;;2.80;2.70;;;6.80;99.90;;;;;;5027870;28;20469;-56
2022/01/23 12:08:30;;;;;;;3.10;2.90;;;6.80;99.90;;;;;;5025624;28;20469;-56
2022/01/23 12:17:15;;;;;;;2.17;2.10;;;6.80;99.90;;;;;;5022866;28;20450;-55
2022/01/23 12:19:45;;;;;;;2.40;2.20;;;6.80;99.90;;;;;;5033651;28;20478;-55
2022/01/23 12:22:39;;;;;;;2.30;2.20;;;6.80;99.90;;;;;;5033578;28;20879;-56
2022/01/23 12:25:21;;;;;;;2.90;2.77;;;6.80;99.90;;;;;;5014114;28;20725;-55
2022/01/23 12:27:48;;;;;;;2.10;2.00;;;6.80;99.90;;;;;;5020227;28;20557;-55
2022/01/23 12:30:33;;;;;;;2.70;2.60;;;6.80;99.90;;;;;;5028742;28;20549;-55
2022/01/23 12:33:22;;;;;;;3.70;3.07;;;6.90;99.90;;;;;;5029056;28;20506;-54
2022/01/23 12:35:50;;;;;;;2.77;2.63;;;6.80;99.90;;;;;;5023252;28;20497;-55
2022/01/23 12:38:18;;;;;;;3.17;2.97;;;6.90;99.90;;;;;;5031381;28;20483;-55
2022/01/23 12:40:47;;;;;;;3.20;2.97;;;7.00;99.90;;;;;;5022418;28;20558;-56
2022/01/23 12:43:17;;;;;;;2.67;2.50;;;7.00;99.90;;;;;;5023428;28;20493;-55
2022/01/23 12:45:53;;;;;;;2.33;2.23;;;7.10;99.90;;;;;;5034106;28;20466;-55
2022/01/23 12:48:45;;;;;;;2.47;2.27;;;7.10;99.90;;;;;;5031728;28;20461;-55
2022/01/23 12:51:30;;;;;;;2.27;2.17;;;7.10;99.90;;;;;;5036196;28;20459;-55
2022/01/23 12:54:20;;;;;;;2.00;1.90;;;7.00;99.90;;;;;;5026253;28;20517;-57
2022/01/23 12:56:51;;;;;;;1.80;1.80;;;6.90;99.90;;;;;;5017171;28;20467;-55
2022/01/23 12:59:24;;;;;;;2.03;1.93;;;6.90;99.90;;;;;;5018187;28;20587;-55
2022/01/23 13:01:59;;;;;;;1.70;1.60;;;6.80;99.90;;;;;;5022069;28;20454;-54
2022/01/23 13:04:31;;;;;;;1.40;1.40;;;6.80;99.90;;;;;;5023194;28;20478;-55
2022/01/23 13:07:14;;;;;;;1.53;1.50;;;6.80;99.90;;;;;;5026808;28;20975;-55
2022/01/23 13:09:48;;;;;;;1.97;1.87;;;6.80;99.90;;;;;;5022431;28;20466;-55
2022/01/23 13:12:30;;;;;;;2.17;2.07;;;6.80;99.90;;;;;;5030916;28;20459;-55
2022/01/23 13:15:13;;;;;;;2.77;2.20;;;6.80;99.90;;;;;;5030840;28;21054;-55
2022/01/23 13:17:52;;;;;;;2.30;2.10;;;6.80;99.90;;;;;;5034409;28;20463;-55
2022/01/23 13:31:41;;;;;;;2.30;2.10;;;6.70;99.90;;;;;;5032318;28;20501;-55
2022/01/23 13:34:31;;;;;;;5.00;4.57;;;6.70;99.90;;;;;;5033325;28;20560;-55
2022/01/23 13:37:00;;;;;;;2.60;2.43;;;6.60;99.90;;;;;;5033294;28;20995;-55
2022/01/23 13:39:31;;;;;;;8.80;7.93;;;6.60;99.90;;;;;;5032138;28;20990;-55
2022/01/23 13:42:12;;;;;;;4.20;4.00;;;6.60;99.90;;;;;;5024250;28;20491;-55
2022/01/23 13:53:21;;;;;;;3.10;2.90;;;6.60;99.90;;;;;;5024456;28;20450;-46
2022/01/23 13:58:37;;;;;;;2.90;2.80;;;6.70;99.90;;;;;;5030536;28;20539;-48
2022/01/23 14:01:29;;;;;;;2.47;2.27;;;6.60;99.90;;;;;;5024709;28;20470;-47
2022/01/23 14:03:56;;;;;;;3.97;3.47;;;6.60;99.90;;;;;;5026353;28;20515;-46
2022/01/23 14:06:25;;;;;;;3.40;3.20;;;6.60;99.90;;;;;;5028875;28;20545;-47
2022/01/23 14:09:04;;;;;;;2.80;2.70;;;6.60;99.90;;;;;;5028038;28;20466;-48
2022/01/23 14:11:31;;;;;;;2.73;2.03;;;6.60;99.90;;;;;;5028882;28;20463;-47
2022/01/23 14:14:10;;;;;;;1.90;1.80;;;6.60;99.90;;;;;;5025146;28;20573;-51
2022/01/23 14:16:37;;;;;;;1.87;1.77;;;6.60;99.90;;;;;;5026242;28;20455;-47
2022/01/23 14:19:14;;;;;;;2.50;2.40;;;6.60;99.90;;;;;;5026364;28;22368;-46
2022/01/23 14:21:43;;;;;;;2.43;2.33;;;6.60;99.90;;;;;;5021933;28;20493;-48
2022/01/23 14:24:10;;;;;;;7.70;2.50;;;6.70;99.90;;;;;;5025228;28;20660;-46
2022/01/23 14:26:37;;;;;;;1.80;1.70;;;6.70;99.90;;;;;;5028685;28;20537;-47
2022/01/23 14:29:06;;;;;;;2.10;2.00;;;6.60;99.90;;;;;;5022837;28;20497;-47
2022/01/23 14:31:37;;;;;;;2.23;2.10;;;6.60;99.90;;;;;;5023569;28;20467;-48
2022/01/23 14:34:05;;;;;;;2.40;2.10;;;6.60;99.90;;;;;;5023237;28;21004;-46
2022/01/23 14:36:34;;;;;;;2.60;2.47;;;6.60;99.90;;;;;;5028524;28;20486;-47
2022/01/23 14:39:05;;;;;;;2.43;2.33;;;6.60;99.90;;;;;;5024339;28;20459;-46
2022/01/23 14:41:34;;;;;;;2.23;2.03;;;6.60;99.90;;;;;;5029181;28;20502;-46
2022/01/23 14:44:05;;;;;;;2.13;2.03;;;6.60;99.90;;;;;;5021674;28;20617;-47
2022/01/23 14:46:32;;;;;;;1.73;1.73;;;6.60;99.90;;;;;;5020752;28;20451;-47
2022/01/23 14:49:09;;;;;;;12.13;2.33;;;6.60;99.90;;;;;;5024373;28;20451;-47
2022/01/23 14:51:38;;;;;;;2.20;2.10;;;6.60;99.90;;;;;;5028590;28;20470;-47
2022/01/23 14:54:06;;;;;;;1.90;1.80;;;6.60;99.90;;;;;;5027484;28;20561;-47
2022/01/23 14:56:37;;;;;;;8.83;1.57;;;6.60;99.90;;;;;;5023905;28;20521;-47
2022/01/23 14:59:08;;;;;;;4.83;1.70;;;6.50;99.90;;;;;;5030250;28;20467;-47
2022/01/23 15:01:35;;;;;;;2.07;1.97;;;6.50;99.90;;;;;;5025607;28;20463;-48
2022/01/23 15:04:07;;;;;;;1.47;1.47;;;6.50;99.90;;;;;;5029568;28;21108;-48
2022/01/23 15:06:33;;;;;;;1.73;1.20;;;6.50;99.90;;;;;;5019611;28;20454;-46
2022/01/23 15:09:06;;;;;;;2.23;1.70;;;6.50;99.90;;;;;;5023660;28;20574;-46
2022/01/23 15:11:33;;;;;;;2.20;2.10;;;6.50;99.90;;;;;;5029585;28;20550;-47
2022/01/23 15:13:59;;;;;;;6.83;2.83;;;6.50;99.90;;;;;;5030497;28;20577;-48
2022/01/23 15:16:26;;;;;;;2.60;2.40;;;6.50;99.90;;;;;;5025347;28;21106;-49
2022/01/23 15:18:52;;;;;;;2.03;1.93;;;6.50;99.90;;;;;;5024550;28;20561;-46
2022/01/23 15:21:19;;;;;;;2.30;2.20;;;6.50;99.90;;;;;;5026951;28;20546;-47
2022/01/23 15:23:45;;;;;;;2.53;2.33;;;6.50;99.90;;;;;;5026350;28;20569;-48
2022/01/23 15:26:14;;;;;;;3.03;2.80;;;6.50;99.90;;;;;;5018429;28;20550;-48
2022/01/23 15:28:41;;;;;;;3.00;2.80;;;6.40;99.90;;;;;;5017414;28;20487;-47
2022/01/23 15:31:07;;;;;;;4.20;3.80;;;6.50;99.90;;;;;;5022779;28;20953;-46
2022/01/23 15:33:34;;;;;;;6.10;3.87;;;6.40;99.90;;;;;;5019885;28;20483;-46
2022/01/23 15:36:01;;;;;;;4.13;3.73;;;6.40;99.90;;;;;;5025622;28;20517;-49
2022/01/23 15:38:29;;;;;;;3.70;3.40;;;6.40;99.90;;;;;;5025820;28;20537;-47
2022/01/23 15:40:56;;;;;;;7.07;4.73;;;6.40;99.90;;;;;;5023828;28;20462;-48
2022/01/23 15:43:24;;;;;;;4.00;3.70;;;6.40;99.90;;;;;;5024438;28;20928;-48
2022/01/23 15:45:52;;;;;;;3.03;2.83;;;6.40;99.90;;;;;;5021664;28;20461;-48
2022/01/23 15:48:19;;;;;;;3.50;3.20;;;6.40;99.90;;;;;;5015460;28;20501;-47
2022/01/23 15:50:45;;;;;;;2.90;2.80;;;6.40;99.90;;;;;;5023388;28;20562;-48
2022/01/23 15:53:12;;;;;;;2.67;2.57;;;6.40;99.90;;;;;;5021124;28;20558;-47
2022/01/23 15:55:39;;;;;;;2.77;2.57;;;6.30;99.90;;;;;;5019397;28;20571;-47